Terminal Aerodrome Forecast
Issued by NWS Paducah, KY

Home | Current Version | Previous Version | Text Only | Print | Product List | Glossary Off
Versions: 1 2 3 4 5 6 7 8 9 10 11 12 13 14 15 16 17 18 19 20 21

813
FTUS43 KPAH 230520
TAFPAH
TAF
KPAH 230520Z 2306/2406 30009KT P6SM VCSH OVC006
     FM231500 29011KT 6SM -SHRA BR SCT012 OVC080
     FM231800 27010KT P6SM FEW150
     FM232300 18005KT P6SM SCT100
     FM240200 29009KT P6SM SCT050 BKN100=

USA.gov is the U.S. government's official web portal to all federal, state and local government web resources and services.